Skip Navigation LinksHome page > Weather > Current weather Skip Navigation Links

Current Weather

Heathrow, London

For information only: do not use for flight planning or navigation.
Latest weather
Observation time Wednesday, July 30, 2014 3:50 PM BST
Local time Wednesday, July 30, 2014 4:08 PM BST
Flight conditions Visual Meteorological Conditions
Winds
Wind direction West (270°)
Winds variable from 230° to 300°
Wind speed 10 mph
Visibility 6.2 mi.
Sky condition
Ceiling unlimited
Cloud layer few clouds 4,900 ft.
Temperature 77°F
Dewpoint 52°F
Altimeter 29.97 in.Hg
Derived measurements
Relative humidity 41%
Heat index 77°F
Density altitude 1285 ft.
Remarks
No significant changes expected in the next two hours.
METAR EGLL 301450Z 27009KT 230V300 9999 FEW049 25/11 Q1015 NOSIG

Settings

Location code

InnerDrive.Weather 4.0.5294.0 Release CLR 4.0.30319.34014
Copyright ©2014 Inner Drive Technology. All rights reserved. Portions Copyright ©1986-2014 David Braverman.

Find weather

Site navigation


Skip Navigation Links

Place info

Page info

PayPal - The safer, easier way to pay online!

Return home.

Copyright ©2014 Inner Drive Technology. Purveyors of fine, hand-crafted computer software. Page printed 2014-07-30T15:08:00 UTC.